Albury
Weather
Information

and Archive.
Albury Local Internet Skycam This service provided and funded by Albury Local Internet

Help keep our weatherstation running:

Lavington Weatherstation live data - Conditions of Use

Last updated on 11-Dec-2018 at 21:55:08
Temperature
  Currently 22.4 degrees C
  Apparent Temperature ("Wind Chill") is 20.6 degrees C
  Today has ranged from 15.8 at 04:38 to 38.4 at 14:20
  Yesterday ranged from 16.0 at 04:12 to 34.8 at 16:01
Wind
  Now:   16.9kmh, gusting to  22.3kmh from 0 degrees ( N )
  Hour:  16.6kmh, gusting to  29.2kmh
Rainfall
   3.4mm Midnight to Midnight (ie, yesterday)
   0.0mm Since Midnight (ie, so far today)
   0.0mm 9am yesterday to 9am today
   7.8mm Total this month
Misc items
  Relative humidity is 61%
  Dewpoint is 14.5 deg C
  Estimated Cloudbase is 3200 feet
  Barometric Pressure is 1014.0 mbar
  Solar Insolation: 0 W/m^2
  UV Index: 0.0 (Low)
Top Solar flares in the last 24 hours

Last 24 hours Temperature Graph (click graph for history)
temperature

Last 24 hours Dynamic Wind display (click image for 4-hour image):
Wind Rose

Current Yarrawonga Weather Radar and Infrared Satellite Images from the BOM.

Hourly summaries in the tables below are cumulative and peak values
for the preceding hour, and instantaneous values at the hour.
So far today, 11-Dec-2018
Time   Barom.  Wind + Gust    Direction   RH   Rain    Temp.  Minimum    Maximum
01:00  1015.0   8.8  15.5kmh  126 ( SE)   65%  0.0mm   20.0  20.0@00:55 22.2@00:00
02:00  1015.0   8.0  15.5kmh  133 ( SE)   73%  0.0mm   18.9  18.7@01:50 20.0@01:00
03:00  1015.0   6.7  13.3kmh   99 ( E )   72%  0.0mm   18.4  18.0@02:43 18.9@02:00
04:00  1015.0   7.9  14.0kmh   83 ( E )   74%  0.0mm   17.5  17.6@03:59 18.7@03:28
05:00  1015.0   0.1   5.8kmh   88 ( E )   78%  0.0mm   17.0  15.8@04:38 17.6@04:02
06:00  1015.0   6.2  12.6kmh  102 (ESE)   83%  0.0mm   16.9  16.4@05:17 17.5@05:36
07:00  1016.0   6.3  10.8kmh  126 ( SE)   81%  0.0mm   17.4  16.8@06:07 17.5@06:26
08:00  1016.0   5.5  10.8kmh  147 (SSE)   66%  0.0mm   21.3  17.4@07:00 21.9@07:49
09:00  1016.0   7.6  13.3kmh   93 ( E )   52%  0.0mm   25.3  21.2@08:01 25.7@08:56
10:00  1016.0   7.6  18.0kmh   26 (NNE)   39%  0.0mm   29.3  25.3@09:00 29.2@09:28
11:00  1016.0   9.4  18.0kmh   38 ( NE)   33%  0.0mm   32.0  28.1@10:20 31.8@10:59
12:00  1016.0   9.3  21.6kmh  305 ( NW)   30%  0.0mm   32.8  28.7@11:08 33.5@11:56
13:00  1015.0   9.7  20.2kmh  268 ( W )   25%  0.0mm   34.1  32.8@12:00 36.2@12:45
14:00  1014.0   9.9  24.5kmh  325 ( NW)   21%  0.0mm   36.2  33.8@13:01 38.0@13:32
15:00  1013.0   9.3  23.8kmh  318 ( NW)   23%  0.0mm   33.6  34.1@14:59 38.4@14:20
16:00  1012.0   8.4  16.2kmh  141 ( SE)   23%  0.0mm   32.1  30.7@15:47 35.8@15:30
17:00  1012.0   8.0  24.8kmh   19 (NNE)   32%  0.0mm   30.9  31.2@16:59 36.5@16:15
18:00  1012.0  17.0  30.6kmh   20 (NNE)   35%  0.0mm   31.2  29.8@17:11 33.5@17:35
19:00  1012.0  19.7  32.4kmh   35 ( NE)   38%  0.0mm   29.0  28.8@18:56 31.3@18:01
20:00  1013.0  14.8  28.4kmh  356 ( N )   46%  0.0mm   26.3  26.4@19:59 29.1@19:02
21:00  1013.0  15.1  24.8kmh   10 ( N )   54%  0.0mm   23.4  23.4@20:58 26.3@20:00
21:55  1014.0  16.6  29.2kmh    8 ( N )   61%  0.0mm   22.4  22.3@21:45 23.4@21:00


Summary for yesterday, 10-Dec-2018
Time   Barom.  Wind + Gust    Direction   RH   Rain    Temp.  Minimum    Maximum
01:00  1017.0   9.2  29.2kmh   75 (ENE)   97%  3.4mm   16.2  16.1@00:54 16.8@00:00
02:00  1016.0  15.9  26.3kmh   51 ( NE)   91%  0.0mm   17.3  16.2@01:00 17.3@01:59
03:00  1016.0   8.4  22.3kmh   50 ( NE)   93%  0.0mm   16.9  16.8@02:50 17.4@02:03
04:00  1015.0   4.8  11.2kmh  125 ( SE)   95%  0.0mm   16.4  16.4@03:58 17.2@03:13
05:00  1015.0   0.9   8.6kmh  135 ( SE)   92%  0.0mm   16.9  16.0@04:12 16.8@04:59
06:00  1015.0   6.8  11.9kmh  151 (SSE)   96%  0.0mm   16.4  16.4@05:53 17.0@05:02
07:00  1015.0   6.1  13.3kmh  128 ( SE)   94%  0.0mm   16.9  16.3@06:20 16.9@06:55
08:00  1016.0   9.2  17.6kmh  123 (ESE)   79%  0.0mm   20.5  16.9@07:00 20.4@07:59
09:00  1016.0   7.9  16.9kmh  143 ( SE)   64%  0.0mm   23.2  20.5@08:00 23.2@08:24
10:00  1016.0  10.1  18.0kmh  131 ( SE)   54%  0.0mm   25.3  22.9@09:05 25.5@09:44
11:00  1016.0  10.2  20.9kmh  151 (SSE)   46%  0.0mm   27.3  24.6@10:02 27.9@10:44
12:00  1016.0   8.6  18.0kmh  160 (SSE)   38%  0.0mm   29.4  26.6@11:04 30.3@11:29
13:00  1015.0  10.2  23.8kmh  169 ( S )   37%  0.0mm   29.7  28.9@12:12 31.1@12:35
14:00  1014.0  12.0  23.8kmh  164 (SSE)   29%  0.0mm   30.6  29.6@13:01 31.7@13:56
15:00  1014.0  11.8  23.8kmh  166 (SSE)   27%  0.0mm   31.2  28.7@14:14 34.0@14:46
16:00  1014.0  11.9  24.5kmh  225 ( SW)   18%  0.0mm   34.6  30.0@15:11 34.3@15:59
17:00  1013.0  11.5  27.7kmh  230 ( SW)   20%  0.0mm   31.5  31.3@16:44 34.8@16:01
18:00  1013.0  12.5  24.5kmh  178 ( S )   18%  0.0mm   31.1  30.6@17:48 33.5@17:23
19:00  1014.0  10.8  23.0kmh  201 (SSW)   14%  0.0mm   31.0  30.7@18:53 31.8@18:04
20:00  1014.0   8.5  16.2kmh  193 (SSW)   20%  0.0mm   28.7  28.9@19:58 31.0@19:00
21:00  1015.0   6.5  10.1kmh  228 ( SW)   23%  0.0mm   25.0  24.6@20:52 28.7@20:00
22:00  1015.0   7.6  12.6kmh  231 ( SW)   23%  0.0mm   24.6  24.4@21:57 25.5@21:13
23:00  1015.0   6.8  10.8kmh  215 ( SW)   27%  0.0mm   22.8  22.7@22:41 24.6@22:00
00:00  1015.0   8.0  16.9kmh  139 ( SE)   42%  0.0mm   22.2  22.2@23:33 23.0@23:42